Time;durP1;ratioP1;P1;durP2;ratioP2;P2;SDS_P1;SDS_P2;PMS_P1;PMS_P2;Temp;Humidity;BMP_temperature;BMP_pressure;BME280_temperature;BME280_humidity;BME280_pressure;Samples;Min_cycle;Max_cycle;Signal;HPM_P1;HPM_P2
2023/12/09 00:00:30;;;;;;;22.40;9.07;;;-8.80;99.90;;;;;;4955924;28;20279;-92
2023/12/09 00:02:57;;;;;;;27.65;10.48;;;-8.90;99.90;;;;;;4955824;28;20192;-92
2023/12/09 00:05:25;;;;;;;25.95;10.32;;;-8.80;99.90;;;;;;4955273;28;20202;-92
2023/12/09 00:07:52;;;;;;;26.77;9.73;;;-8.90;99.90;;;;;;4955312;28;20662;-90
2023/12/09 00:10:20;;;;;;;27.08;9.55;;;-8.90;99.90;;;;;;4940185;28;20191;-90
2023/12/09 00:12:48;;;;;;;24.80;10.05;;;-8.80;99.90;;;;;;4955324;28;20845;-91
2023/12/09 00:15:16;;;;;;;24.60;9.93;;;-8.90;99.90;;;;;;4939812;28;20200;-92
2023/12/09 00:17:43;;;;;;;26.52;9.82;;;-8.90;99.90;;;;;;4955730;28;20188;-91
2023/12/09 00:20:11;;;;;;;29.08;9.63;;;-8.90;99.90;;;;;;4955329;28;20192;-92
2023/12/09 00:22:40;;;;;;;26.75;10.07;;;-9.00;99.90;;;;;;4955789;28;20262;-93
2023/12/09 00:25:07;;;;;;;26.75;9.77;;;-9.00;99.90;;;;;;4955128;28;20254;-92
2023/12/09 00:27:35;;;;;;;27.67;10.40;;;-9.00;99.90;;;;;;4955395;28;20204;-91
2023/12/09 00:30:03;;;;;;;31.25;12.82;;;-9.00;99.90;;;;;;4957727;28;20203;-91
2023/12/09 00:32:31;;;;;;;30.17;11.27;;;-9.00;99.90;;;;;;4959158;28;20694;-90
2023/12/09 00:35:00;;;;;;;30.17;10.48;;;-8.90;99.90;;;;;;4958962;28;20666;-92
2023/12/09 00:37:28;;;;;;;29.75;9.45;;;-8.80;99.90;;;;;;4958632;28;20675;-92
2023/12/09 00:39:55;;;;;;;26.70;10.00;;;-8.90;99.90;;;;;;4958641;28;20685;-92
2023/12/09 00:42:23;;;;;;;26.40;9.65;;;-8.90;99.90;;;;;;4958713;28;20232;-92
2023/12/09 00:44:51;;;;;;;26.42;10.43;;;-8.90;99.90;;;;;;4958998;28;20254;-91
2023/12/09 00:47:18;;;;;;;24.45;9.77;;;-8.90;99.90;;;;;;4959220;28;20286;-91
2023/12/09 00:49:46;;;;;;;26.50;9.82;;;-8.90;99.90;;;;;;4958654;28;20335;-92
2023/12/09 00:52:14;;;;;;;24.27;9.15;;;-8.90;99.90;;;;;;4958780;28;20214;-91
2023/12/09 00:54:41;;;;;;;26.92;10.35;;;-8.90;99.90;;;;;;4958572;28;20200;-92
2023/12/09 00:57:09;;;;;;;29.95;11.20;;;-8.90;99.90;;;;;;4958747;28;20184;-93
2023/12/09 00:59:36;;;;;;;24.73;10.85;;;-8.90;99.90;;;;;;4942965;28;20247;-91
2023/12/09 01:02:04;;;;;;;25.10;9.68;;;-8.90;99.90;;;;;;4958636;28;20239;-92
2023/12/09 01:04:32;;;;;;;25.38;9.20;;;-8.90;99.90;;;;;;4958751;28;20192;-91
2023/12/09 01:06:59;;;;;;;28.55;11.18;;;-9.10;99.90;;;;;;4958658;28;20287;-92
2023/12/09 01:09:27;;;;;;;29.30;11.02;;;-8.90;99.90;;;;;;4958426;28;20204;-90
2023/12/09 01:11:54;;;;;;;24.23;9.75;;;-9.00;99.90;;;;;;4958173;28;20674;-92
2023/12/09 01:14:22;;;;;;;28.13;10.10;;;-9.00;99.90;;;;;;4958178;28;20200;-92
2023/12/09 01:16:49;;;;;;;26.02;10.20;;;-9.10;99.90;;;;;;4958493;28;20524;-91
2023/12/09 01:19:16;;;;;;;27.20;10.48;;;-9.00;99.90;;;;;;4958387;28;20271;-92
2023/12/09 01:21:44;;;;;;;27.67;11.02;;;-8.90;99.90;;;;;;4958355;28;20204;-92
2023/12/09 01:24:11;;;;;;;22.38;9.55;;;-9.00;99.90;;;;;;4958188;28;20216;-92
2023/12/09 01:26:39;;;;;;;27.73;10.60;;;-9.10;99.90;;;;;;4958147;28;20207;-91
2023/12/09 01:29:06;;;;;;;26.20;10.25;;;-9.20;99.90;;;;;;4942187;28;20274;-92
2023/12/09 01:31:35;;;;;;;27.60;10.55;;;-9.10;99.90;;;;;;4957842;28;20310;-93
2023/12/09 01:34:02;;;;;;;24.10;9.60;;;-9.10;99.90;;;;;;4958217;28;20192;-91
2023/12/09 01:36:30;;;;;;;28.83;10.20;;;-9.00;99.90;;;;;;4958122;28;20659;-92
2023/12/09 01:38:58;;;;;;;27.38;10.00;;;-9.00;99.90;;;;;;4957738;28;20184;-92
2023/12/09 01:41:27;;;;;;;26.48;9.52;;;-9.00;99.90;;;;;;4957043;28;20350;-91
2023/12/09 01:43:54;;;;;;;23.77;9.45;;;-9.00;99.90;;;;;;4957783;28;20203;-91
2023/12/09 01:46:22;;;;;;;26.90;9.73;;;-8.90;99.90;;;;;;4957725;28;20596;-90
2023/12/09 01:48:50;;;;;;;26.65;10.90;;;-9.00;99.90;;;;;;4958203;28;20188;-92
2023/12/09 01:51:18;;;;;;;29.35;10.32;;;-9.00;99.90;;;;;;4942043;28;20238;-92
2023/12/09 01:53:46;;;;;;;28.88;11.10;;;-9.00;99.90;;;;;;4958285;28;20652;-90
2023/12/09 01:56:16;;;;;;;32.90;10.50;;;-9.10;99.90;;;;;;4957624;28;20188;-91
2023/12/09 01:58:44;;;;;;;27.48;10.43;;;-9.10;99.90;;;;;;4957319;28;20187;-92
2023/12/09 02:01:13;;;;;;;25.73;10.18;;;-9.20;99.90;;;;;;4957728;28;20688;-90
2023/12/09 02:03:42;;;;;;;28.02;9.98;;;-9.10;99.90;;;;;;4957715;28;20192;-91
2023/12/09 02:06:10;;;;;;;25.33;9.85;;;-9.00;99.90;;;;;;4957623;28;20232;-93
2023/12/09 02:08:39;;;;;;;23.63;9.40;;;-9.00;99.90;;;;;;4957718;28;20203;-92
2023/12/09 02:11:28;;;;;;;25.50;9.93;;;-9.00;99.90;;;;;;4957685;28;20639;-91
2023/12/09 02:14:10;;;;;;;30.67;10.23;;;-8.90;99.90;;;;;;4957209;28;20196;-92
2023/12/09 02:16:46;;;;;;;26.58;10.18;;;-9.00;99.90;;;;;;4957458;28;20188;-92
2023/12/09 02:19:14;;;;;;;31.95;10.05;;;-9.00;99.90;;;;;;4957626;28;20231;-92
2023/12/09 02:22:02;;;;;;;24.95;9.95;;;-9.00;99.90;;;;;;4957081;28;20581;-91
2023/12/09 02:24:30;;;;;;;29.20;10.60;;;-9.00;99.90;;;;;;4957594;28;20251;-91
2023/12/09 02:27:02;;;;;;;30.97;11.03;;;-9.10;99.90;;;;;;4956849;28;20199;-92
2023/12/09 02:29:38;;;;;;;27.55;10.05;;;-9.20;99.90;;;;;;4956752;28;20224;-91
2023/12/09 02:32:08;;;;;;;26.00;10.80;;;-9.20;99.90;;;;;;4956743;28;20208;-92
2023/12/09 02:34:39;;;;;;;26.63;9.85;;;-9.20;99.90;;;;;;4957164;28;20219;-91
2023/12/09 02:37:09;;;;;;;29.92;10.90;;;-9.20;99.90;;;;;;4956963;28;20191;-92
2023/12/09 02:39:37;;;;;;;29.35;9.57;;;-9.20;99.90;;;;;;4957321;28;20192;-92
2023/12/09 02:42:05;;;;;;;28.58;10.45;;;-9.20;99.90;;;;;;4956590;28;20696;-92
2023/12/09 02:44:34;;;;;;;26.67;10.40;;;-9.20;99.90;;;;;;4956933;28;20247;-92
2023/12/09 02:47:01;;;;;;;30.52;10.50;;;-9.20;99.90;;;;;;4941049;28;20223;-92
2023/12/09 02:49:29;;;;;;;28.13;10.02;;;-9.30;99.90;;;;;;4940652;28;20191;-92
2023/12/09 02:51:56;;;;;;;23.05;9.85;;;-9.20;99.90;;;;;;4955977;28;20243;-91
2023/12/09 02:54:24;;;;;;;26.00;10.07;;;-9.00;99.90;;;;;;4955790;28;20662;-92
2023/12/09 02:56:52;;;;;;;26.60;11.13;;;-9.20;99.90;;;;;;4956871;28;20204;-92
2023/12/09 02:59:19;;;;;;;28.33;9.50;;;-9.20;99.90;;;;;;4956712;28;20188;-91
2023/12/09 03:01:47;;;;;;;29.75;9.23;;;-9.10;99.90;;;;;;4956710;28;20203;-92
2023/12/09 03:04:15;;;;;;;26.75;10.02;;;-9.20;99.90;;;;;;4956667;28;20192;-92
2023/12/09 03:06:42;;;;;;;31.90;12.98;;;-9.20;99.90;;;;;;4956654;28;20199;-92
2023/12/09 03:09:10;;;;;;;35.30;13.38;;;-9.20;99.90;;;;;;4956399;28;20200;-92
2023/12/09 03:11:37;;;;;;;32.05;14.02;;;-9.20;99.90;;;;;;4956286;28;20200;-92
2023/12/09 03:14:05;;;;;;;29.60;12.13;;;-9.20;99.90;;;;;;4956785;28;20188;-92
2023/12/09 03:16:36;;;;;;;29.25;9.50;;;-9.20;99.90;;;;;;4956418;28;20635;-92
2023/12/09 03:19:04;;;;;;;25.48;10.57;;;-9.20;99.90;;;;;;4956407;28;20211;-92
2023/12/09 03:21:32;;;;;;;28.73;9.57;;;-9.20;99.90;;;;;;4956406;28;20192;-92
2023/12/09 03:24:00;;;;;;;25.52;10.45;;;-9.30;99.90;;;;;;4955900;28;20274;-92
2023/12/09 03:26:27;;;;;;;25.90;9.43;;;-9.30;99.90;;;;;;4956158;28;20196;-92
2023/12/09 03:28:55;;;;;;;26.70;9.48;;;-9.20;99.90;;;;;;4955860;28;20223;-91
2023/12/09 03:31:22;;;;;;;29.08;10.07;;;-9.20;99.90;;;;;;4956347;28;20196;-91
2023/12/09 03:33:50;;;;;;;28.42;9.43;;;-9.20;99.90;;;;;;4956008;28;20222;-91
2023/12/09 03:36:18;;;;;;;23.08;9.32;;;-9.20;99.90;;;;;;4955765;28;20569;-92
2023/12/09 03:38:45;;;;;;;29.83;10.67;;;-9.10;99.90;;;;;;4955726;28;20192;-92
2023/12/09 03:41:13;;;;;;;27.40;10.47;;;-9.20;99.90;;;;;;4955673;28;20228;-92
2023/12/09 03:43:40;;;;;;;24.33;9.68;;;-9.20;99.90;;;;;;4955991;28;20195;-92
2023/12/09 03:46:08;;;;;;;27.17;9.23;;;-9.00;99.90;;;;;;4956093;28;20208;-92
2023/12/09 03:48:35;;;;;;;34.13;11.13;;;-9.00;99.90;;;;;;4955972;28;20196;-91
2023/12/09 03:51:03;;;;;;;27.38;10.05;;;-9.10;99.90;;;;;;4956085;28;20191;-90
2023/12/09 03:53:31;;;;;;;30.77;12.00;;;-9.10;99.90;;;;;;4956309;28;20569;-91
2023/12/09 03:55:58;;;;;;;28.33;9.82;;;-9.20;99.90;;;;;;4952193;28;20599;-91
2023/12/09 03:58:26;;;;;;;26.73;10.73;;;-9.10;99.90;;;;;;4952215;29;20192;-91
2023/12/09 04:00:54;;;;;;;28.95;10.77;;;-9.00;99.90;;;;;;4921259;29;20284;-91
2023/12/09 04:03:22;;;;;;;23.42;9.63;;;-9.10;99.90;;;;;;4952273;28;20196;-92
2023/12/09 04:05:50;;;;;;;25.98;10.52;;;-9.10;99.90;;;;;;4955918;28;20819;-91
2023/12/09 04:08:17;;;;;;;27.77;9.52;;;-9.00;99.90;;;;;;4940305;29;20196;-92
2023/12/09 04:10:45;;;;;;;28.27;9.68;;;-9.10;99.90;;;;;;4956502;29;20188;-91
2023/12/09 04:13:12;;;;;;;23.65;9.60;;;-9.10;99.90;;;;;;4955921;29;20208;-91
2023/12/09 04:15:40;;;;;;;26.63;9.32;;;-9.10;99.90;;;;;;4955914;29;20673;-90
2023/12/09 04:18:07;;;;;;;24.17;9.80;;;-9.10;99.90;;;;;;4940283;29;20185;-91
2023/12/09 04:20:36;;;;;;;25.00;10.48;;;-9.10;99.90;;;;;;4956445;29;20189;-92
2023/12/09 04:23:04;;;;;;;25.92;9.98;;;-9.10;99.90;;;;;;4940365;29;20203;-90
2023/12/09 04:25:32;;;;;;;28.58;11.48;;;-9.00;99.90;;;;;;4955698;29;20200;-92
2023/12/09 04:27:59;;;;;;;31.02;10.27;;;-9.10;99.90;;;;;;4940267;29;20200;-92
2023/12/09 04:30:27;;;;;;;28.55;10.07;;;-9.10;99.90;;;;;;4940497;29;20272;-91
2023/12/09 04:32:54;;;;;;;30.48;10.77;;;-9.00;99.90;;;;;;4940761;28;20212;-91
2023/12/09 04:35:22;;;;;;;32.03;11.38;;;-8.90;99.90;;;;;;4956164;29;20200;-91
2023/12/09 04:37:49;;;;;;;32.60;12.00;;;-9.00;99.90;;;;;;4955665;28;20247;-92
2023/12/09 04:40:17;;;;;;;21.25;8.52;;;-9.00;99.90;;;;;;4955616;29;20615;-91
2023/12/09 04:42:45;;;;;;;28.90;9.82;;;-9.10;99.90;;;;;;4939921;28;20817;-91
2023/12/09 04:45:14;;;;;;;29.73;9.95;;;-9.10;99.90;;;;;;4940152;28;20555;-91
2023/12/09 04:47:42;;;;;;;31.60;10.65;;;-9.10;99.90;;;;;;4939623;29;20196;-90
2023/12/09 04:50:10;;;;;;;27.88;9.85;;;-9.10;99.90;;;;;;4955681;29;20196;-91
2023/12/09 04:52:38;;;;;;;29.65;10.25;;;-9.20;99.90;;;;;;4939540;28;20223;-93
2023/12/09 04:55:08;;;;;;;22.30;9.48;;;-9.10;99.90;;;;;;4955631;29;20200;-91
2023/12/09 04:57:35;;;;;;;26.25;10.55;;;-9.10;99.90;;;;;;4955370;29;20203;-91
2023/12/09 05:00:05;;;;;;;27.70;9.40;;;-9.10;99.90;;;;;;4955735;28;20200;-91
2023/12/09 05:02:33;;;;;;;27.17;10.50;;;-9.10;99.90;;;;;;4944002;29;20228;-92
2023/12/09 05:05:00;;;;;;;31.20;12.80;;;-9.00;99.90;;;;;;4955520;29;20196;-92
2023/12/09 05:07:28;;;;;;;30.20;12.80;;;-9.20;99.90;;;;;;4923319;29;20200;-92
2023/12/09 05:09:55;;;;;;;26.90;10.88;;;-9.30;99.90;;;;;;4939418;29;20189;-92
2023/12/09 05:12:23;;;;;;;27.92;9.52;;;-9.40;99.90;;;;;;4939041;29;20271;-92
2023/12/09 05:14:51;;;;;;;20.42;7.97;;;-9.30;99.90;;;;;;4924690;29;20188;-92
2023/12/09 05:17:18;;;;;;;26.95;9.68;;;-9.20;99.90;;;;;;4932936;28;20219;-91
2023/12/09 05:19:46;;;;;;;28.77;9.57;;;-9.20;99.90;;;;;;4967379;28;20212;-91
2023/12/09 05:22:14;;;;;;;25.00;9.23;;;-9.30;99.90;;;;;;4941220;29;20212;-92
2023/12/09 05:24:42;;;;;;;28.17;10.68;;;-9.30;99.90;;;;;;4949324;28;20239;-91
2023/12/09 05:27:10;;;;;;;23.30;10.02;;;-9.20;99.90;;;;;;4960226;28;20191;-92
2023/12/09 05:29:38;;;;;;;25.27;9.27;;;-9.20;99.90;;;;;;4944432;28;20754;-91
2023/12/09 05:32:10;;;;;;;25.08;8.70;;;-9.20;99.90;;;;;;4960219;28;20184;-90
2023/12/09 05:34:37;;;;;;;29.33;10.18;;;-9.30;99.90;;;;;;4960279;28;20195;-91
2023/12/09 05:37:05;;;;;;;26.25;8.30;;;-9.30;99.90;;;;;;4960403;28;20602;-91
2023/12/09 05:39:33;;;;;;;29.98;9.80;;;-9.30;99.90;;;;;;4924597;29;20189;-91
2023/12/09 05:42:00;;;;;;;27.45;10.38;;;-9.40;99.90;;;;;;4956516;28;20621;-91
2023/12/09 05:44:28;;;;;;;28.27;10.23;;;-9.40;99.90;;;;;;4924941;29;20215;-91
2023/12/09 05:46:56;;;;;;;28.45;9.82;;;-9.30;99.90;;;;;;4940819;29;20201;-92
2023/12/09 05:49:23;;;;;;;24.40;9.68;;;-9.30;99.90;;;;;;4959528;28;20218;-91
2023/12/09 05:51:51;;;;;;;29.63;12.43;;;-9.40;99.90;;;;;;4944112;28;20200;-91
2023/12/09 05:54:19;;;;;;;23.08;8.77;;;-9.20;99.90;;;;;;4959955;28;20270;-90
2023/12/09 05:56:48;;;;;;;29.02;10.18;;;-9.20;99.90;;;;;;4943752;28;20195;-91
2023/12/09 05:59:16;;;;;;;28.85;8.80;;;-9.30;99.90;;;;;;4959825;28;20663;-91
2023/12/09 06:01:44;;;;;;;26.17;10.57;;;-9.40;99.90;;;;;;4956643;28;20201;-92
2023/12/09 06:04:11;;;;;;;25.45;8.95;;;-9.40;99.90;;;;;;4959576;28;20184;-92
2023/12/09 06:06:39;;;;;;;23.83;9.52;;;-9.30;99.90;;;;;;4955839;28;20235;-92
2023/12/09 06:09:07;;;;;;;22.00;8.10;;;-9.20;99.90;;;;;;4943090;28;20219;-91
2023/12/09 06:11:34;;;;;;;23.02;8.20;;;-9.30;99.90;;;;;;4959647;28;20669;-91
2023/12/09 06:14:03;;;;;;;25.30;9.85;;;-9.50;99.90;;;;;;4975350;28;20690;-91
2023/12/09 06:16:30;;;;;;;29.80;10.97;;;-9.40;99.90;;;;;;4959070;28;20251;-91
2023/12/09 06:18:58;;;;;;;32.20;9.65;;;-9.40;99.90;;;;;;4972790;28;20279;-92
2023/12/09 06:21:26;;;;;;;28.13;9.23;;;-9.30;99.90;;;;;;4972237;28;20196;-90
2023/12/09 06:23:53;;;;;;;24.93;10.17;;;-9.20;99.90;;;;;;4959194;28;20196;-92
2023/12/09 06:26:21;;;;;;;27.15;10.00;;;-9.40;99.90;;;;;;4975478;28;20196;-92
2023/12/09 06:28:48;;;;;;;26.50;9.83;;;-9.50;99.90;;;;;;4975057;28;20650;-93
2023/12/09 06:31:15;;;;;;;28.83;9.80;;;-9.50;99.90;;;;;;4959063;28;20224;-91
2023/12/09 06:33:43;;;;;;;23.00;8.93;;;-9.40;99.90;;;;;;4974877;28;20212;-90
2023/12/09 06:36:11;;;;;;;31.70;10.27;;;-9.50;99.90;;;;;;4959124;28;20275;-91
2023/12/09 06:38:39;;;;;;;24.63;9.10;;;-9.40;99.90;;;;;;4956274;28;20610;-93
2023/12/09 06:41:08;;;;;;;26.95;9.98;;;-9.40;99.90;;;;;;4956158;28;20220;-91
2023/12/09 06:43:35;;;;;;;25.05;10.50;;;-9.50;99.90;;;;;;4961459;28;20271;-92
2023/12/09 06:46:03;;;;;;;29.42;10.52;;;-9.40;99.90;;;;;;4940026;28;20252;-92
2023/12/09 06:48:30;;;;;;;28.40;10.93;;;-9.70;99.90;;;;;;4953161;28;20235;-92
2023/12/09 06:50:58;;;;;;;26.10;9.98;;;-9.50;99.90;;;;;;4958993;28;20204;-92
2023/12/09 06:53:25;;;;;;;25.60;9.82;;;-9.60;99.90;;;;;;4974599;28;20212;-91
2023/12/09 06:55:53;;;;;;;31.25;10.68;;;-9.40;99.90;;;;;;4975099;28;20215;-92
2023/12/09 06:58:21;;;;;;;28.30;10.48;;;-9.40;99.90;;;;;;4975260;28;20268;-91
2023/12/09 07:00:48;;;;;;;29.88;11.43;;;-9.50;99.90;;;;;;4959054;28;20219;-93
2023/12/09 07:03:16;;;;;;;23.90;9.48;;;-9.50;99.90;;;;;;4973924;28;20199;-91
2023/12/09 07:05:44;;;;;;;25.15;10.32;;;-9.40;99.90;;;;;;4959161;28;20196;-92
2023/12/09 07:08:12;;;;;;;32.40;9.83;;;-9.50;99.90;;;;;;4973717;28;20227;-91
2023/12/09 07:10:44;;;;;;;26.92;9.82;;;-9.40;99.90;;;;;;4958273;28;20199;-91
2023/12/09 07:13:12;;;;;;;32.22;11.13;;;-9.30;99.90;;;;;;4942530;28;20563;-93
2023/12/09 07:15:39;;;;;;;29.50;10.60;;;-9.40;99.90;;;;;;4974478;28;20242;-92
2023/12/09 07:18:07;;;;;;;32.60;10.73;;;-9.40;99.90;;;;;;4942702;28;20188;-93
2023/12/09 07:20:35;;;;;;;25.17;9.20;;;-9.40;99.90;;;;;;4958500;28;20192;-90
2023/12/09 07:23:03;;;;;;;30.48;9.73;;;-9.50;99.90;;;;;;4974483;28;20224;-92
2023/12/09 07:25:30;;;;;;;32.10;11.95;;;-9.60;99.90;;;;;;4942823;28;20651;-91
2023/12/09 07:27:58;;;;;;;24.75;8.82;;;-9.40;99.90;;;;;;4971862;28;20347;-92
2023/12/09 07:30:26;;;;;;;29.38;10.00;;;-9.40;99.90;;;;;;4936491;29;20232;-91
2023/12/09 07:32:53;;;;;;;28.60;10.32;;;-9.40;99.90;;;;;;4923339;29;20196;-91
2023/12/09 07:35:21;;;;;;;32.53;10.23;;;-9.40;99.90;;;;;;4946677;28;20650;-92
2023/12/09 07:37:48;;;;;;;29.08;10.05;;;-9.30;99.90;;;;;;4938620;29;20200;-91
2023/12/09 07:40:16;;;;;;;32.40;9.73;;;-9.40;99.90;;;;;;4937807;29;20189;-91
2023/12/09 07:42:43;;;;;;;36.33;10.63;;;-9.30;99.90;;;;;;4923235;29;20224;-91
2023/12/09 07:45:11;;;;;;;30.98;10.00;;;-9.20;99.90;;;;;;4938906;29;20188;-90
2023/12/09 07:47:38;;;;;;;27.48;9.95;;;-9.20;99.90;;;;;;4923323;29;20196;-90
2023/12/09 07:50:06;;;;;;;24.80;10.00;;;-9.30;99.90;;;;;;4923203;29;20193;-91
2023/12/09 07:52:34;;;;;;;27.73;10.05;;;-9.30;99.90;;;;;;4923227;29;20619;-92
2023/12/09 07:55:01;;;;;;;28.45;11.18;;;-9.20;99.90;;;;;;4923034;29;20205;-92
2023/12/09 07:57:29;;;;;;;30.13;9.77;;;-9.20;99.90;;;;;;4938730;29;20197;-91
2023/12/09 07:59:57;;;;;;;32.00;9.90;;;-9.20;99.90;;;;;;4923061;29;20254;-91
2023/12/09 08:02:24;;;;;;;28.10;9.45;;;-9.20;99.90;;;;;;4922934;29;20659;-91
2023/12/09 08:04:52;;;;;;;31.02;11.93;;;-9.30;99.90;;;;;;4923146;29;20192;-91
2023/12/09 08:07:19;;;;;;;31.98;12.13;;;-9.30;99.90;;;;;;4922643;29;20205;-91
2023/12/09 08:09:47;;;;;;;27.35;10.95;;;-9.20;99.90;;;;;;4937906;28;20192;-92
2023/12/09 08:12:14;;;;;;;26.13;10.38;;;-9.30;99.90;;;;;;4922958;29;20200;-91
2023/12/09 08:14:42;;;;;;;30.63;10.63;;;-9.50;99.90;;;;;;4938553;29;20289;-91
2023/12/09 08:17:09;;;;;;;26.77;9.48;;;-9.30;99.90;;;;;;4923024;29;20196;-91
2023/12/09 08:19:37;;;;;;;28.75;11.05;;;-9.30;99.90;;;;;;4922870;29;20220;-91
2023/12/09 08:22:05;;;;;;;264.15;133.18;;;-9.30;99.90;;;;;;4922977;29;20656;-90
2023/12/09 08:24:32;;;;;;;47.95;21.67;;;-9.10;99.90;;;;;;4922750;29;20739;-91
2023/12/09 08:27:00;;;;;;;38.83;18.80;;;-9.10;99.90;;;;;;4922312;29;20650;-90
2023/12/09 08:29:27;;;;;;;36.47;9.93;;;-9.20;99.90;;;;;;4923167;28;20199;-90
2023/12/09 08:31:56;;;;;;;44.20;22.45;;;-9.20;99.90;;;;;;4955201;28;20192;-91
2023/12/09 08:34:24;;;;;;;38.33;15.48;;;-9.10;99.90;;;;;;4938448;29;20243;-92
2023/12/09 08:36:52;;;;;;;37.63;15.32;;;-9.20;99.90;;;;;;4938611;29;20200;-91
2023/12/09 08:39:22;;;;;;;30.25;11.50;;;-9.30;99.90;;;;;;4954258;28;20185;-91
2023/12/09 08:41:50;;;;;;;29.08;12.27;;;-9.10;99.90;;;;;;4938169;29;20256;-91
2023/12/09 08:44:17;;;;;;;35.95;14.98;;;-9.00;99.90;;;;;;4938054;29;20200;-92
2023/12/09 08:46:45;;;;;;;32.78;13.20;;;-9.00;99.90;;;;;;4922393;29;20690;-93
2023/12/09 08:49:13;;;;;;;31.52;11.10;;;-9.00;99.90;;;;;;4954318;28;20201;-91
2023/12/09 08:51:48;;;;;;;34.38;12.73;;;-9.00;99.90;;;;;;4940045;29;20199;-91
2023/12/09 08:54:15;;;;;;;30.45;11.98;;;-9.00;99.90;;;;;;4943098;28;20204;-92
2023/12/09 08:56:43;;;;;;;33.67;10.63;;;-9.20;99.90;;;;;;4960347;28;20282;-91
2023/12/09 08:59:11;;;;;;;36.42;14.85;;;-9.00;99.90;;;;;;4945103;29;20189;-93
2023/12/09 09:01:39;;;;;;;36.55;15.70;;;-9.00;99.90;;;;;;4963979;28;20555;-91
2023/12/09 09:04:06;;;;;;;37.45;16.23;;;-9.10;99.90;;;;;;4941606;29;20185;-91
2023/12/09 09:06:34;;;;;;;41.95;14.80;;;-9.30;99.90;;;;;;4967754;28;20294;-92
2023/12/09 09:09:01;;;;;;;31.15;12.85;;;-9.20;99.90;;;;;;4960632;28;20299;-91
2023/12/09 09:11:29;;;;;;;34.92;11.30;;;-9.00;99.90;;;;;;4955772;28;20397;-92
2023/12/09 09:13:56;;;;;;;38.33;12.95;;;-8.90;99.90;;;;;;4943226;28;20224;-90
2023/12/09 09:16:23;;;;;;;35.70;12.25;;;-9.00;99.90;;;;;;4960480;28;20184;-91
2023/12/09 09:18:52;;;;;;;36.30;14.43;;;-8.90;99.90;;;;;;4960895;28;20192;-91
2023/12/09 09:21:20;;;;;;;28.65;11.35;;;-9.00;99.90;;;;;;4960788;28;20196;-92
2023/12/09 09:23:49;;;;;;;64.95;13.48;;;-8.90;99.90;;;;;;4976785;28;20254;-92
2023/12/09 09:26:17;;;;;;;31.40;12.63;;;-8.90;99.90;;;;;;4960584;28;20195;-93
2023/12/09 09:28:44;;;;;;;43.95;25.58;;;-8.90;99.90;;;;;;4941286;28;20209;-93
2023/12/09 09:31:12;;;;;;;42.95;15.32;;;-8.90;99.90;;;;;;4941363;29;20199;-93
2023/12/09 09:33:41;;;;;;;37.25;14.27;;;-8.80;99.90;;;;;;4957459;28;20221;-93
2023/12/09 09:36:09;;;;;;;45.58;13.85;;;-8.80;99.90;;;;;;4941783;29;20188;-93
2023/12/09 09:38:38;;;;;;;37.55;13.95;;;-8.90;99.90;;;;;;4941241;28;20522;-94
2023/12/09 09:41:11;;;;;;;30.45;11.90;;;-8.80;99.90;;;;;;4942631;29;20235;-94
2023/12/09 09:43:46;;;;;;;34.40;10.82;;;-8.70;99.90;;;;;;4940771;29;20558;-93
2023/12/09 09:46:14;;;;;;;36.05;13.20;;;-8.80;99.90;;;;;;4941776;29;20204;-93
2023/12/09 09:48:44;;;;;;;36.92;15.40;;;-8.80;99.90;;;;;;4941181;29;20193;-94
2023/12/09 09:51:15;;;;;;;37.40;15.17;;;-8.80;99.90;;;;;;4941070;29;20220;-94
2023/12/09 09:54:15;;;;;;;46.63;18.02;;;-8.80;99.90;;;;;;4940798;29;20211;-93
2023/12/09 09:56:43;;;;;;;39.67;19.52;;;-8.80;99.90;;;;;;4916421;29;20283;-94
2023/12/09 09:59:12;;;;;;;42.83;21.52;;;-8.80;99.90;;;;;;4940703;28;20185;-92
2023/12/09 10:01:41;;;;;;;42.17;18.95;;;-8.80;99.90;;;;;;4959166;28;20195;-95
2023/12/09 10:04:08;;;;;;;35.50;13.93;;;-8.90;99.90;;;;;;4960691;28;20668;-94
2023/12/09 10:06:36;;;;;;;44.45;15.07;;;-8.80;99.90;;;;;;4960042;28;20567;-93
2023/12/09 10:09:04;;;;;;;35.03;12.57;;;-8.90;99.90;;;;;;4944769;28;20219;-95
2023/12/09 10:11:32;;;;;;;37.70;13.75;;;-8.80;99.90;;;;;;4945052;28;20287;-94
2023/12/09 10:13:59;;;;;;;42.22;14.77;;;-8.60;99.90;;;;;;4959888;28;20204;-93
2023/12/09 10:16:27;;;;;;;40.05;13.15;;;-8.60;99.90;;;;;;4975992;28;20203;-92
2023/12/09 10:18:54;;;;;;;39.47;13.52;;;-8.50;99.90;;;;;;4943744;28;20188;-94
2023/12/09 10:21:22;;;;;;;43.75;18.23;;;-8.50;99.90;;;;;;4975188;28;20559;-93
2023/12/09 10:23:50;;;;;;;37.55;14.25;;;-8.60;99.90;;;;;;4944207;28;20195;-93
2023/12/09 10:26:18;;;;;;;40.00;15.95;;;-8.70;99.90;;;;;;4944004;28;20202;-94
2023/12/09 10:28:46;;;;;;;44.65;14.57;;;-8.60;99.90;;;;;;4975780;28;20215;-94
2023/12/09 10:31:13;;;;;;;45.42;14.60;;;-8.60;99.90;;;;;;4960086;28;20533;-94
2023/12/09 10:33:42;;;;;;;41.97;16.30;;;-8.50;99.90;;;;;;4976078;28;20247;-94
2023/12/09 10:36:11;;;;;;;35.50;15.27;;;-8.60;99.90;;;;;;4944909;28;20200;-93
2023/12/09 10:38:45;;;;;;;41.78;14.55;;;-8.60;99.90;;;;;;4943711;28;20192;-93
2023/12/09 10:41:13;;;;;;;35.83;13.15;;;-8.60;99.90;;;;;;4975412;28;20215;-95
2023/12/09 10:43:40;;;;;;;40.33;13.85;;;-8.50;99.90;;;;;;4976011;28;20243;-94
2023/12/09 10:46:11;;;;;;;43.13;16.23;;;-8.40;99.90;;;;;;4975382;28;20192;-94
2023/12/09 10:48:41;;;;;;;36.15;12.93;;;-8.40;99.90;;;;;;4959574;28;20255;-93
2023/12/09 10:51:09;;;;;;;40.60;15.68;;;-8.50;99.90;;;;;;4975435;28;20196;-93
2023/12/09 10:53:37;;;;;;;35.03;14.35;;;-8.50;99.90;;;;;;4959004;28;20192;-94
2023/12/09 10:56:07;;;;;;;44.00;16.90;;;-8.40;99.90;;;;;;4955928;28;20643;-93
2023/12/09 10:58:36;;;;;;;40.08;15.85;;;-8.40;99.90;;;;;;4939827;28;20659;-94
2023/12/09 11:01:07;;;;;;;54.20;17.40;;;-8.40;99.90;;;;;;4929194;29;20192;-93
2023/12/09 11:03:36;;;;;;;39.92;13.25;;;-8.40;99.90;;;;;;4955612;28;20192;-93
2023/12/09 11:06:06;;;;;;;47.72;16.83;;;-8.50;99.90;;;;;;4930092;28;20196;-94
2023/12/09 11:08:36;;;;;;;40.78;13.50;;;-8.50;99.90;;;;;;4944671;28;20659;-94
2023/12/09 11:11:05;;;;;;;49.60;15.88;;;-8.40;99.90;;;;;;4926712;28;20196;-93
2023/12/09 11:13:34;;;;;;;45.78;15.80;;;-8.30;99.90;;;;;;4926369;28;20193;-95
2023/12/09 11:16:17;;;;;;;33.40;14.02;;;-8.30;99.90;;;;;;4955446;28;20188;-93
2023/12/09 11:18:52;;;;;;;51.25;14.43;;;-8.30;99.90;;;;;;4955343;29;20196;-94
2023/12/09 11:21:21;;;;;;;38.53;14.02;;;-8.40;99.90;;;;;;4939432;29;20192;-93
2023/12/09 11:23:50;;;;;;;47.30;15.07;;;-8.30;99.90;;;;;;4939160;29;20192;-93
2023/12/09 11:26:19;;;;;;;36.17;14.13;;;-8.20;99.90;;;;;;4939337;29;20195;-93
2023/12/09 11:29:08;;;;;;;42.05;15.00;;;-8.20;99.90;;;;;;4933054;28;20188;-92
2023/12/09 11:31:48;;;;;;;48.53;17.65;;;-8.30;99.90;;;;;;4939293;29;20185;-93
2023/12/09 11:34:20;;;;;;;49.28;15.13;;;-8.20;99.90;;;;;;4954347;29;20204;-92
2023/12/09 11:36:52;;;;;;;42.15;14.65;;;-8.20;99.90;;;;;;4955153;29;20188;-94
2023/12/09 11:39:22;;;;;;;46.92;15.23;;;-8.20;99.90;;;;;;4955092;29;20188;-94
2023/12/09 11:41:50;;;;;;;44.20;14.27;;;-8.30;99.90;;;;;;4954562;29;20228;-93
2023/12/09 11:44:18;;;;;;;50.17;17.35;;;-8.30;99.90;;;;;;4939152;28;20629;-93
2023/12/09 11:46:46;;;;;;;46.95;16.27;;;-8.10;99.90;;;;;;4939135;28;20197;-95
2023/12/09 11:49:14;;;;;;;57.50;20.55;;;-8.10;99.90;;;;;;4939219;28;20196;-94
2023/12/09 11:51:42;;;;;;;51.60;21.15;;;-8.10;99.90;;;;;;4939533;29;20192;-92
2023/12/09 11:54:10;;;;;;;50.92;15.88;;;-8.10;99.90;;;;;;4938606;29;20213;-95
2023/12/09 11:56:39;;;;;;;47.05;17.50;;;-8.00;99.90;;;;;;4922827;28;20185;-90
2023/12/09 11:59:07;;;;;;;43.55;15.68;;;-8.00;99.90;;;;;;4923207;29;20189;-94
2023/12/09 12:01:37;;;;;;;53.83;16.95;;;-8.00;99.90;;;;;;4955138;28;20185;-94
2023/12/09 12:04:05;;;;;;;49.55;15.30;;;-8.00;99.90;;;;;;4954596;28;20216;-93
2023/12/09 12:06:35;;;;;;;61.33;19.80;;;-8.10;99.90;;;;;;4939665;29;20184;-94
2023/12/09 12:09:03;;;;;;;49.97;17.60;;;-8.10;99.90;;;;;;4939024;29;20196;-92
2023/12/09 12:11:32;;;;;;;52.58;17.05;;;-8.20;99.90;;;;;;4955018;29;20193;-93
2023/12/09 12:14:00;;;;;;;46.95;17.65;;;-8.20;99.90;;;;;;4923133;28;20208;-93
2023/12/09 12:16:28;;;;;;;48.50;17.00;;;-8.20;99.90;;;;;;4925591;29;20628;-93
2023/12/09 12:18:55;;;;;;;50.15;16.10;;;-8.30;99.90;;;;;;4938662;28;20735;-94
2023/12/09 12:21:24;;;;;;;54.63;18.30;;;-8.10;99.90;;;;;;4938550;28;20192;-93
2023/12/09 12:23:52;;;;;;;42.90;16.38;;;-8.00;99.90;;;;;;4922895;29;20255;-93
2023/12/09 12:26:21;;;;;;;54.22;16.75;;;-8.10;99.90;;;;;;4953829;28;20192;-94
2023/12/09 12:28:51;;;;;;;50.55;17.17;;;-8.00;99.90;;;;;;4961285;28;20293;-94
2023/12/09 12:31:20;;;;;;;48.55;17.15;;;-8.00;99.90;;;;;;4942405;28;20189;-94
2023/12/09 12:33:47;;;;;;;56.80;18.13;;;-8.00;99.90;;;;;;4926618;29;20242;-93
2023/12/09 12:36:16;;;;;;;51.50;15.93;;;-8.10;99.90;;;;;;4926617;29;20212;-93